Time,TemperatureF,DewpointF,PressureIn,WindDirection,WindDirectionDegrees,WindSpeedMPH,WindSpeedGustMPH,Humidity,HourlyPrecipIn,Conditions,Clouds,dailyrainin,SoftwareType,DateUTC
2013-08-01 00:02:00,68.1,66.9,30.00,NNE,20,0.0,0.0,96,0.00,,,0.00,Wunderground v.1.15,2013-08-01 05:02:00,
2013-08-01 00:07:00,68.1,66.9,30.00,NNE,20,0.0,0.0,96,0.00,,,0.00,Wunderground v.1.15,2013-08-01 05:07:00,
2013-08-01 00:13:00,68.0,66.8,30.00,NNE,20,0.0,0.0,96,0.00,,,0.00,Wunderground v.1.15,2013-08-01 05:13:00,
2013-08-01 00:19:00,68.1,66.9,30.00,NNE,20,0.0,0.0,96,0.00,,,0.00,Wunderground v.1.15,2013-08-01 05:19:00,
2013-08-01 00:25:00,67.9,66.7,30.00,NNE,20,0.0,0.0,96,0.00,,,0.00,Wunderground v.1.15,2013-08-01 05:25:00,
2013-08-01 00:30:00,67.8,66.6,30.00,NNE,20,0.0,0.0,96,0.00,,,0.00,Wunderground v.1.15,2013-08-01 05:30:00,
2013-08-01 00:36:00,67.7,66.5,30.00,NNE,20,0.0,0.0,96,0.00,,,0.00,Wunderground v.1.15,2013-08-01 05:36:00,
2013-08-01 00:42:00,67.8,66.9,30.00,NNE,20,0.0,0.0,97,0.00,,,0.00,Wunderground v.1.15,2013-08-01 05:42:00,
2013-08-01 00:47:00,68.0,67.1,30.00,NNE,20,0.0,0.0,97,0.00,,,0.00,Wunderground v.1.15,2013-08-01 05:47:00,
2013-08-01 00:53:00,68.2,67.3,29.99,NNE,20,0.0,0.0,97,0.00,,,0.00,Wunderground v.1.15,2013-08-01 05:53:00,
2013-08-01 00:58:00,68.3,67.4,29.99,NNE,20,0.0,0.0,97,0.00,,,0.00,Wunderground v.1.15,2013-08-01 05:58:00,
2013-08-01 01:04:00,68.3,67.4,29.99,NNE,20,0.0,0.0,97,0.00,,,0.00,Wunderground v.1.15,2013-08-01 06:04:00,
2013-08-01 01:10:00,68.5,67.6,29.99,NNE,20,0.0,0.0,97,0.00,,,0.00,Wunderground v.1.15,2013-08-01 06:10:00,
2013-08-01 01:16:00,68.5,67.6,29.99,NNE,20,0.0,0.0,97,0.00,,,0.00,Wunderground v.1.15,2013-08-01 06:16:00,
2013-08-01 01:22:00,68.5,67.6,29.99,NNE,20,0.0,0.0,97,0.00,,,0.00,Wunderground v.1.15,2013-08-01 06:22:00,
2013-08-01 01:27:00,68.4,67.5,30.00,NNE,20,0.0,0.0,97,0.00,,,0.00,Wunderground v.1.15,2013-08-01 06:27:00,
2013-08-01 01:32:00,68.1,67.2,29.99,NNE,20,0.0,0.0,97,0.00,,,0.00,Wunderground v.1.15,2013-08-01 06:32:00,
2013-08-01 01:37:00,68.0,67.1,29.99,NNE,20,0.0,0.0,97,0.00,,,0.00,Wunderground v.1.15,2013-08-01 06:37:00,
2013-08-01 01:43:00,68.0,67.1,29.99,NNE,20,0.0,0.0,97,0.00,,,0.00,Wunderground v.1.15,2013-08-01 06:43:00,
2013-08-01 01:49:00,68.1,67.2,29.99,NNE,20,0.0,0.0,97,0.00,,,0.00,Wunderground v.1.15,2013-08-01 06:49:00,
2013-08-01 01:54:00,68.1,67.2,29.99,NNE,20,0.0,0.0,97,0.00,,,0.00,Wunderground v.1.15,2013-08-01 06:54:00,
2013-08-01 01:59:00,68.3,67.4,29.99,NNE,20,0.0,0.0,97,0.00,,,0.00,Wunderground v.1.15,2013-08-01 06:59:00,
2013-08-01 02:05:00,68.2,67.3,29.98,NNE,20,0.0,0.0,97,0.00,,,0.00,Wunderground v.1.15,2013-08-01 07:05:00,
2013-08-01 02:10:00,68.0,67.1,29.98,NNE,20,0.0,0.0,97,0.00,,,0.00,Wunderground v.1.15,2013-08-01 07:10:00,
2013-08-01 02:15:00,67.9,67.0,29.98,NNE,20,0.0,0.0,97,0.00,,,0.00,Wunderground v.1.15,2013-08-01 07:15:00,
2013-08-01 02:21:00,67.7,66.8,29.98,NNE,20,0.0,1.0,97,0.00,,,0.00,Wunderground v.1.15,2013-08-01 07:21:00,
2013-08-01 02:26:00,67.5,66.6,29.98,NNE,20,0.0,1.0,97,0.00,,,0.00,Wunderground v.1.15,2013-08-01 07:26:00,
2013-08-01 02:32:00,67.5,66.6,29.97,NNE,20,0.0,0.0,97,0.00,,,0.00,Wunderground v.1.15,2013-08-01 07:32:00,
2013-08-01 02:38:00,67.7,66.8,29.97,NNE,20,0.0,0.0,97,0.00,,,0.00,Wunderground v.1.15,2013-08-01 07:38:00,
2013-08-01 02:44:00,67.9,67.3,29.97,NNE,20,0.0,0.0,98,0.00,,,0.00,Wunderground v.1.15,2013-08-01 07:44:00,
2013-08-01 02:49:00,67.8,67.2,29.97,NNE,20,0.0,0.0,98,0.00,,,0.00,Wunderground v.1.15,2013-08-01 07:49:00,
2013-08-01 02:54:00,67.8,66.9,29.97,NNE,20,0.0,0.0,97,0.00,,,0.00,Wunderground v.1.15,2013-08-01 07:54:00,
2013-08-01 02:59:00,68.0,67.4,29.97,NNE,20,0.0,0.0,98,0.00,,,0.00,Wunderground v.1.15,2013-08-01 07:59:00,
2013-08-01 03:04:00,68.1,67.5,29.97,NNE,20,0.0,0.0,98,0.00,,,0.00,Wunderground v.1.15,2013-08-01 08:04:00,
2013-08-01 03:10:00,68.2,67.6,29.97,SW,234,0.0,2.0,98,0.00,,,0.00,Wunderground v.1.15,2013-08-01 08:10:00,
2013-08-01 03:16:00,68.2,67.6,29.97,SW,227,1.0,3.0,98,0.00,,,0.00,Wunderground v.1.15,2013-08-01 08:16:00,
2013-08-01 03:21:00,68.5,67.9,29.97,SW,232,1.0,1.0,98,0.00,,,0.00,Wunderground v.1.15,2013-08-01 08:21:00,
2013-08-01 03:27:00,68.6,68.0,29.97,SW,232,0.0,1.0,98,0.00,,,0.00,Wunderground v.1.15,2013-08-01 08:27:00,
2013-08-01 03:33:00,68.5,67.9,29.97,SW,232,0.0,0.0,98,0.00,,,0.00,Wunderground v.1.15,2013-08-01 08:33:00,
2013-08-01 03:39:00,68.5,67.9,29.97,NW,320,0.0,1.0,98,0.00,,,0.00,Wunderground v.1.15,2013-08-01 08:39:00,
2013-08-01 03:44:00,68.4,67.8,29.97,NW,320,0.0,0.0,98,0.00,,,0.00,Wunderground v.1.15,2013-08-01 08:44:00,
2013-08-01 03:49:00,68.4,67.8,29.97,NW,320,0.0,0.0,98,0.00,,,0.00,Wunderground v.1.15,2013-08-01 08:49:00,
2013-08-01 03:55:00,68.3,67.4,29.98,NW,320,0.0,0.0,97,0.00,,,0.00,Wunderground v.1.15,2013-08-01 08:55:00,
2013-08-01 04:01:00,68.3,67.7,29.97,NW,320,0.0,0.0,98,0.00,,,0.00,Wunderground v.1.15,2013-08-01 09:01:00,
2013-08-01 04:07:00,68.3,67.7,29.97,NW,320,0.0,0.0,98,0.00,,,0.00,Wunderground v.1.15,2013-08-01 09:07:00,
2013-08-01 04:12:00,68.5,67.9,29.98,WSW,257,0.0,2.0,98,0.00,,,0.00,Wunderground v.1.15,2013-08-01 09:12:00,
2013-08-01 04:18:00,68.6,68.0,29.98,WSW,250,1.0,3.0,98,0.00,,,0.00,Wunderground v.1.15,2013-08-01 09:18:00,
2013-08-01 04:24:00,68.7,68.1,29.98,WSW,248,1.0,2.0,98,0.00,,,0.00,Wunderground v.1.15,2013-08-01 09:24:00,
2013-08-01 04:29:00,68.7,68.1,29.98,WSW,248,0.0,2.0,98,0.00,,,0.00,Wunderground v.1.15,2013-08-01 09:29:00,
2013-08-01 04:39:00,68.8,68.2,29.98,WSW,248,0.0,0.0,98,0.00,,,0.00,Wunderground v.1.15,2013-08-01 09:39:00,
2013-08-01 04:44:00,69.0,68.4,29.99,WSW,248,0.0,0.0,98,0.00,,,0.00,Wunderground v.1.15,2013-08-01 09:44:00,
2013-08-01 04:50:00,69.2,68.6,29.99,WSW,248,0.0,0.0,98,0.00,,,0.00,Wunderground v.1.15,2013-08-01 09:50:00,
2013-08-01 04:56:00,69.3,68.7,29.99,WSW,248,0.0,1.0,98,0.00,,,0.00,Wunderground v.1.15,2013-08-01 09:56:00,
2013-08-01 05:02:00,69.4,68.8,29.99,WSW,248,0.0,1.0,98,0.00,,,0.00,Wunderground v.1.15,2013-08-01 10:02:00,
2013-08-01 05:07:00,69.5,68.9,29.99,WSW,248,1.0,2.0,98,0.00,,,0.00,Wunderground v.1.15,2013-08-01 10:07:00,
2013-08-01 05:13:00,69.5,68.9,30.00,WSW,249,1.0,2.0,98,0.00,,,0.00,Wunderground v.1.15,2013-08-01 10:13:00,
2013-08-01 05:21:00,69.4,68.8,30.00,WSW,249,0.0,1.0,98,0.00,,,0.00,Wunderground v.1.15,2013-08-01 10:21:00,
2013-08-01 05:26:00,69.3,68.7,30.00,WSW,249,1.0,1.0,98,0.00,,,0.00,Wunderground v.1.15,2013-08-01 10:26:00,
2013-08-01 05:32:00,69.2,68.6,30.00,WSW,249,0.0,0.0,98,0.00,,,0.00,Wunderground v.1.15,2013-08-01 10:32:00,
2013-08-01 05:38:00,69.1,68.5,30.00,WSW,249,0.0,0.0,98,0.00,,,0.00,Wunderground v.1.15,2013-08-01 10:38:00,
2013-08-01 05:43:00,68.9,68.0,30.00,WSW,249,0.0,1.0,97,0.00,,,0.00,Wunderground v.1.15,2013-08-01 10:43:00,
2013-08-01 05:48:00,68.8,67.9,30.01,WSW,248,1.0,2.0,97,0.00,,,0.00,Wunderground v.1.15,2013-08-01 10:48:00,
2013-08-01 05:54:00,68.8,68.2,30.01,WSW,248,0.0,1.0,98,0.00,,,0.00,Wunderground v.1.15,2013-08-01 10:54:00,
2013-08-01 06:01:00,68.7,68.1,30.01,WSW,248,0.0,0.0,98,0.00,,,0.00,Wunderground v.1.15,2013-08-01 11:01:00,
2013-08-01 06:06:00,68.6,68.0,30.01,WSW,248,0.0,0.0,98,0.00,,,0.00,Wunderground v.1.15,2013-08-01 11:06:00,
2013-08-01 06:11:00,68.5,67.6,30.01,WSW,248,0.0,0.0,97,0.00,,,0.00,Wunderground v.1.15,2013-08-01 11:11:00,
2013-08-01 06:16:00,68.4,67.5,30.01,WSW,248,0.0,0.0,97,0.00,,,0.00,Wunderground v.1.15,2013-08-01 11:16:00,
2013-08-01 06:22:00,68.4,67.5,30.01,WSW,248,0.0,1.0,97,0.00,,,0.00,Wunderground v.1.15,2013-08-01 11:22:00,
2013-08-01 06:27:00,68.3,67.4,30.01,WSW,248,0.0,1.0,97,0.00,,,0.00,Wunderground v.1.15,2013-08-01 11:27:00,
2013-08-01 06:33:00,68.5,67.9,30.01,WSW,248,0.0,0.0,98,0.00,,,0.00,Wunderground v.1.15,2013-08-01 11:33:00,
2013-08-01 06:38:00,68.6,68.0,30.01,WSW,248,0.0,0.0,98,0.00,,,0.00,Wunderground v.1.15,2013-08-01 11:38:00,
2013-08-01 06:44:00,68.8,68.2,30.01,WSW,248,0.0,0.0,98,0.00,,,0.00,Wunderground v.1.15,2013-08-01 11:44:00,
2013-08-01 06:49:00,69.0,68.4,30.01,WSW,248,0.0,0.0,98,0.00,,,0.00,Wunderground v.1.15,2013-08-01 11:49:00,
2013-08-01 06:54:00,69.1,68.5,30.01,WSW,248,0.0,0.0,98,0.00,,,0.00,Wunderground v.1.15,2013-08-01 11:54:00,
2013-08-01 07:02:00,69.4,68.8,30.01,WSW,246,0.0,3.0,98,0.00,,,0.00,Wunderground v.1.15,2013-08-01 12:02:00,
2013-08-01 07:08:00,69.7,69.1,30.01,WSW,246,1.0,3.0,98,0.00,,,0.00,Wunderground v.1.15,2013-08-01 12:08:00,
2013-08-01 07:14:00,69.8,69.2,30.02,WSW,244,1.0,2.0,98,0.00,,,0.00,Wunderground v.1.15,2013-08-01 12:14:00,
2013-08-01 07:19:00,69.9,69.3,30.02,WSW,238,2.0,4.0,98,0.00,,,0.00,Wunderground v.1.15,2013-08-01 12:19:00,
2013-08-01 07:24:00,70.0,69.4,30.02,SW,229,2.0,2.0,98,0.00,,,0.00,Wunderground v.1.15,2013-08-01 12:24:00,
2013-08-01 07:30:00,70.1,69.2,30.02,SW,231,1.0,1.0,97,0.00,,,0.00,Wunderground v.1.15,2013-08-01 12:30:00,
2013-08-01 07:35:00,70.2,69.3,30.02,SW,221,0.0,1.0,97,0.00,,,0.00,Wunderground v.1.15,2013-08-01 12:35:00,
2013-08-01 07:40:00,70.2,69.3,30.02,SW,221,0.0,0.0,97,0.00,,,0.00,Wunderground v.1.15,2013-08-01 12:40:00,
2013-08-01 07:47:00,70.3,69.4,30.02,SW,221,0.0,0.0,97,0.00,,,0.00,Wunderground v.1.15,2013-08-01 12:47:00,
2013-08-01 07:53:00,70.3,69.4,30.02,SW,221,0.0,0.0,97,0.00,,,0.00,Wunderground v.1.15,2013-08-01 12:53:00,
2013-08-01 08:01:00,70.4,69.2,30.02,SW,219,0.0,0.0,96,0.00,,,0.00,Wunderground v.1.15,2013-08-01 13:01:00,
2013-08-01 08:06:00,70.6,69.7,30.02,SW,219,0.0,0.0,97,0.00,,,0.00,Wunderground v.1.15,2013-08-01 13:06:00,
2013-08-01 08:12:00,70.9,70.0,30.03,SW,219,0.0,0.0,97,0.00,,,0.00,Wunderground v.1.15,2013-08-01 13:12:00,
2013-08-01 08:17:00,71.1,69.9,30.03,SW,219,0.0,1.0,96,0.00,,,0.00,Wunderground v.1.15,2013-08-01 13:17:00,
2013-08-01 08:25:00,71.2,69.7,30.02,SW,217,0.0,1.0,95,0.00,,,0.00,Wunderground v.1.15,2013-08-01 13:25:00,
2013-08-01 08:30:00,71.4,69.9,30.03,SW,219,0.0,1.0,95,0.00,,,0.00,Wunderground v.1.15,2013-08-01 13:30:00,
2013-08-01 08:38:00,71.7,69.9,30.03,SW,217,0.0,0.0,94,0.00,,,0.00,Wunderground v.1.15,2013-08-01 13:38:00,
2013-08-01 08:44:00,71.7,69.9,30.03,South,178,0.0,0.0,94,0.00,,,0.00,Wunderground v.1.15,2013-08-01 13:44:00,
2013-08-01 08:49:00,71.7,69.9,30.03,South,178,0.0,1.0,94,0.00,,,0.00,Wunderground v.1.15,2013-08-01 13:49:00,
2013-08-01 08:55:00,71.8,70.0,30.03,South,178,0.0,0.0,94,0.00,,,0.00,Wunderground v.1.15,2013-08-01 13:55:00,
2013-08-01 09:00:00,71.9,70.1,30.04,South,175,0.0,0.0,94,0.00,,,0.00,Wunderground v.1.15,2013-08-01 14:00:00,
2013-08-01 09:06:00,71.8,69.7,30.04,South,179,0.0,1.0,93,0.00,,,0.00,Wunderground v.1.15,2013-08-01 14:06:00,
2013-08-01 09:13:00,71.7,69.6,30.04,ENE,57,0.0,0.0,93,0.00,,,0.00,Wunderground v.1.15,2013-08-01 14:13:00,
2013-08-01 09:19:00,71.8,69.7,30.05,East,97,0.0,2.0,93,0.00,,,0.00,Wunderground v.1.15,2013-08-01 14:19:00,
2013-08-01 09:24:00,71.7,69.6,30.05,ENE,60,0.0,1.0,93,0.00,,,0.00,Wunderground v.1.15,2013-08-01 14:24:00,
2013-08-01 09:29:00,71.7,69.6,30.04,ENE,60,0.0,1.0,93,0.00,,,0.00,Wunderground v.1.15,2013-08-01 14:29:00,
2013-08-01 09:35:00,71.6,69.5,30.04,SSE,148,0.0,2.0,93,0.00,,,0.00,Wunderground v.1.15,2013-08-01 14:35:00,
2013-08-01 09:40:00,71.5,69.4,30.04,NE,55,0.0,0.0,93,0.00,,,0.00,Wunderground v.1.15,2013-08-01 14:40:00,
2013-08-01 09:48:00,71.9,70.1,30.05,SSW,194,0.0,1.0,94,0.00,,,0.00,Wunderground v.1.15,2013-08-01 14:48:00,
2013-08-01 09:54:00,72.4,70.3,30.05,East,86,0.0,2.0,93,0.00,,,0.00,Wunderground v.1.15,2013-08-01 14:54:00,
2013-08-01 09:59:00,73.2,70.1,30.05,SW,223,1.0,2.0,90,0.00,,,0.00,Wunderground v.1.15,2013-08-01 14:59:00,
2013-08-01 10:05:00,73.8,70.0,30.05,ESE,111,0.0,1.0,88,0.00,,,0.00,Wunderground v.1.15,2013-08-01 15:05:00,
2013-08-01 10:11:00,74.4,70.6,30.05,SE,126,0.0,1.0,88,0.00,,,0.00,Wunderground v.1.15,2013-08-01 15:11:00,
2013-08-01 10:17:00,75.2,71.1,30.05,NE,52,0.0,2.0,87,0.00,,,0.00,Wunderground v.1.15,2013-08-01 15:17:00,
2013-08-01 10:23:00,76.2,71.7,30.05,NE,54,0.0,0.0,86,0.00,,,0.00,Wunderground v.1.15,2013-08-01 15:23:00,
2013-08-01 10:29:00,77.0,71.1,30.06,ESE,110,0.0,2.0,82,0.00,,,0.00,Wunderground v.1.15,2013-08-01 15:29:00,
2013-08-01 10:34:00,77.6,71.7,30.06,ESE,114,0.0,1.0,82,0.00,,,0.00,Wunderground v.1.15,2013-08-01 15:34:00,
2013-08-01 10:40:00,77.7,70.3,30.06,SW,223,1.0,2.0,78,0.00,,,0.00,Wunderground v.1.15,2013-08-01 15:40:00,
2013-08-01 10:46:00,77.2,69.8,30.06,SE,132,1.0,2.0,78,0.00,,,0.00,Wunderground v.1.15,2013-08-01 15:46:00,
2013-08-01 10:54:00,78.3,70.9,30.06,NNE,29,1.0,2.0,78,0.00,,,0.00,Wunderground v.1.15,2013-08-01 15:54:00,
2013-08-01 10:59:00,79.0,70.8,30.06,NNE,33,2.0,4.0,76,0.00,,,0.00,Wunderground v.1.15,2013-08-01 15:59:00,
2013-08-01 11:04:00,79.1,72.0,30.05,SSE,163,2.0,2.0,79,0.00,,,0.00,Wunderground v.1.15,2013-08-01 16:04:00,
2013-08-01 11:09:00,79.4,70.4,30.05,South,188,1.0,2.0,74,0.00,,,0.00,Wunderground v.1.15,2013-08-01 16:09:00,
2013-08-01 11:15:00,80.0,70.6,30.05,SSE,163,1.0,1.0,73,0.00,,,0.00,Wunderground v.1.15,2013-08-01 16:15:00,
2013-08-01 11:21:00,80.9,71.0,30.05,ENE,59,1.0,2.0,72,0.00,,,0.00,Wunderground v.1.15,2013-08-01 16:21:00,
2013-08-01 11:27:00,81.6,71.7,30.05,ENE,73,2.0,5.0,72,0.00,,,0.00,Wunderground v.1.15,2013-08-01 16:27:00,
2013-08-01 11:32:00,82.0,70.8,30.05,NNE,24,2.0,4.0,69,0.00,,,0.00,Wunderground v.1.15,2013-08-01 16:32:00,
2013-08-01 11:38:00,81.7,70.1,30.05,ESE,107,2.0,4.0,68,0.00,,,0.00,Wunderground v.1.15,2013-08-01 16:38:00,
2013-08-01 11:43:00,81.2,69.6,30.05,South,175,1.0,2.0,68,0.00,,,0.00,Wunderground v.1.15,2013-08-01 16:43:00,
2013-08-01 11:51:00,81.7,71.4,30.05,NE,51,1.0,1.0,71,0.00,,,0.00,Wunderground v.1.15,2013-08-01 16:51:00,
2013-08-01 11:57:00,82.0,70.8,30.05,ENE,61,2.0,4.0,69,0.00,,,0.00,Wunderground v.1.15,2013-08-01 16:57:00,
2013-08-01 12:04:00,81.5,70.3,30.05,NE,44,1.0,3.0,69,0.00,,,0.00,Wunderground v.1.15,2013-08-01 17:04:00,
2013-08-01 12:09:00,81.9,70.7,30.05,ENE,57,1.0,3.0,69,0.00,,,0.00,Wunderground v.1.15,2013-08-01 17:09:00,
2013-08-01 12:14:00,82.1,69.2,30.04,NE,50,2.0,5.0,65,0.00,,,0.00,Wunderground v.1.15,2013-08-01 17:14:00,
2013-08-01 12:21:00,82.1,69.6,30.04,ENE,74,2.0,2.0,66,0.00,,,0.00,Wunderground v.1.15,2013-08-01 17:21:00,
2013-08-01 12:26:00,81.9,68.5,30.04,NE,35,1.0,4.0,64,0.00,,,0.00,Wunderground v.1.15,2013-08-01 17:26:00,
2013-08-01 12:32:00,82.0,68.2,30.04,NW,306,1.0,2.0,63,0.00,,,0.00,Wunderground v.1.15,2013-08-01 17:32:00,
2013-08-01 12:37:00,82.7,70.2,30.04,ESE,113,1.0,2.0,66,0.00,,,0.00,Wunderground v.1.15,2013-08-01 17:37:00,
2013-08-01 12:42:00,83.1,71.0,30.04,NE,50,1.0,5.0,67,0.00,,,0.00,Wunderground v.1.15,2013-08-01 17:42:00,
2013-08-01 12:48:00,83.4,69.9,30.04,ENE,61,2.0,6.0,64,0.00,,,0.00,Wunderground v.1.15,2013-08-01 17:48:00,
2013-08-01 12:54:00,83.3,69.4,30.04,ENE,65,3.0,4.0,63,0.00,,,0.00,Wunderground v.1.15,2013-08-01 17:54:00,
2013-08-01 13:01:00,82.9,68.1,30.04,East,92,2.0,3.0,61,0.00,,,0.00,Wunderground v.1.15,2013-08-01 18:01:00,
2013-08-01 13:08:00,83.4,69.5,30.03,ENE,65,2.0,3.0,63,0.00,,,0.00,Wunderground v.1.15,2013-08-01 18:08:00,
2013-08-01 13:13:00,83.2,69.8,30.04,NNE,30,1.0,2.0,64,0.00,,,0.00,Wunderground v.1.15,2013-08-01 18:13:00,
2013-08-01 13:18:00,83.5,70.5,30.04,NE,53,2.0,3.0,65,0.00,,,0.00,Wunderground v.1.15,2013-08-01 18:18:00,
2013-08-01 13:28:00,83.1,70.1,30.03,SSE,148,1.0,4.0,65,0.00,,,0.00,Wunderground v.1.15,2013-08-01 18:28:00,
2013-08-01 13:33:00,83.3,69.4,30.03,WSW,239,1.0,2.0,63,0.00,,,0.00,Wunderground v.1.15,2013-08-01 18:33:00,
2013-08-01 13:38:00,83.6,69.2,30.03,NE,38,2.0,3.0,62,0.00,,,0.00,Wunderground v.1.15,2013-08-01 18:38:00,
2013-08-01 13:43:00,83.7,70.2,30.03,ESE,111,1.0,2.0,64,0.00,,,0.00,Wunderground v.1.15,2013-08-01 18:43:00,
2013-08-01 13:48:00,83.4,69.0,30.03,NE,46,1.0,2.0,62,0.00,,,0.00,Wunderground v.1.15,2013-08-01 18:48:00,
2013-08-01 13:53:00,82.7,70.2,30.03,ENE,62,1.0,4.0,66,0.00,,,0.00,Wunderground v.1.15,2013-08-01 18:53:00,
2013-08-01 13:59:00,82.9,70.4,30.03,WSW,244,2.0,4.0,66,0.00,,,0.00,Wunderground v.1.15,2013-08-01 18:59:00,
2013-08-01 14:04:00,83.4,68.1,30.03,SW,217,1.0,3.0,60,0.00,,,0.00,Wunderground v.1.15,2013-08-01 19:04:00,
2013-08-01 14:11:00,83.6,69.7,30.03,East,86,1.0,1.0,63,0.00,,,0.00,Wunderground v.1.15,2013-08-01 19:11:00,
2013-08-01 14:18:00,84.7,68.8,30.02,ENE,65,1.0,3.0,59,0.00,,,0.00,Wunderground v.1.15,2013-08-01 19:18:00,
2013-08-01 14:23:00,84.9,69.5,30.02,NNE,20,1.0,5.0,60,0.00,,,0.00,Wunderground v.1.15,2013-08-01 19:23:00,
2013-08-01 14:29:00,84.1,68.7,30.02,NNE,31,1.0,5.0,60,0.00,,,0.00,Wunderground v.1.15,2013-08-01 19:29:00,
2013-08-01 14:35:00,84.2,70.2,30.02,NE,55,1.0,2.0,63,0.00,,,0.00,Wunderground v.1.15,2013-08-01 19:35:00,
2013-08-01 14:41:00,84.9,70.4,30.02,ENE,76,1.0,1.0,62,0.00,,,0.00,Wunderground v.1.15,2013-08-01 19:41:00,
2013-08-01 14:47:00,85.4,70.4,30.02,South,187,1.0,2.0,61,0.00,,,0.00,Wunderground v.1.15,2013-08-01 19:47:00,
2013-08-01 14:53:00,85.4,68.9,30.02,WSW,246,2.0,4.0,58,0.00,,,0.00,Wunderground v.1.15,2013-08-01 19:53:00,
2013-08-01 14:58:00,85.6,70.1,30.02,WSW,243,2.0,4.0,60,0.00,,,0.00,Wunderground v.1.15,2013-08-01 19:58:00,
2013-08-01 15:04:00,86.1,69.6,30.02,SW,227,1.0,3.0,58,0.00,,,0.00,Wunderground v.1.15,2013-08-01 20:04:00,
2013-08-01 15:09:00,86.0,68.0,30.01,WSW,240,2.0,6.0,55,0.00,,,0.00,Wunderground v.1.15,2013-08-01 20:09:00,
2013-08-01 15:15:00,85.8,71.3,30.02,SE,128,1.0,2.0,62,0.00,,,0.00,Wunderground v.1.15,2013-08-01 20:15:00,
2013-08-01 15:22:00,85.5,70.0,30.01,NE,51,1.0,6.0,60,0.00,,,0.00,Wunderground v.1.15,2013-08-01 20:22:00,
2013-08-01 15:28:00,85.0,70.0,30.01,NE,53,2.0,6.0,61,0.00,,,0.00,Wunderground v.1.15,2013-08-01 20:28:00,
2013-08-01 15:33:00,85.5,70.0,30.00,East,96,1.0,2.0,60,0.00,,,0.00,Wunderground v.1.15,2013-08-01 20:33:00,
2013-08-01 15:39:00,85.7,69.7,30.01,WSW,245,1.0,2.0,59,0.00,,,0.00,Wunderground v.1.15,2013-08-01 20:39:00,
2013-08-01 15:43:00,85.7,72.1,30.01,East,82,1.0,1.0,64,0.00,,,0.00,Wunderground v.1.15,2013-08-01 20:43:00,
2013-08-01 15:48:00,85.7,71.2,30.01,East,83,0.0,2.0,62,0.00,,,0.00,Wunderground v.1.15,2013-08-01 20:48:00,
2013-08-01 15:54:00,85.5,70.0,30.01,ENE,69,1.0,3.0,60,0.00,,,0.00,Wunderground v.1.15,2013-08-01 20:54:00,
2013-08-01 15:59:00,85.0,68.1,30.01,NE,55,2.0,3.0,57,0.00,,,0.00,Wunderground v.1.15,2013-08-01 20:59:00,
2013-08-01 16:05:00,84.8,69.9,30.01,ESE,112,1.0,2.0,61,0.00,,,0.00,Wunderground v.1.15,2013-08-01 21:05:00,
2013-08-01 16:10:00,85.2,69.3,30.01,ENE,59,1.0,1.0,59,0.00,,,0.00,Wunderground v.1.15,2013-08-01 21:10:00,
2013-08-01 16:16:00,85.0,70.0,30.00,SSW,198,1.0,1.0,61,0.00,,,0.00,Wunderground v.1.15,2013-08-01 21:16:00,
2013-08-01 16:22:00,84.6,68.7,30.00,ESE,107,1.0,2.0,59,0.00,,,0.00,Wunderground v.1.15,2013-08-01 21:22:00,
2013-08-01 16:27:00,84.5,69.6,30.00,SSW,212,1.0,4.0,61,0.00,,,0.00,Wunderground v.1.15,2013-08-01 21:27:00,
2013-08-01 16:33:00,84.7,69.3,30.00,SW,225,1.0,2.0,60,0.00,,,0.00,Wunderground v.1.15,2013-08-01 21:33:00,
2013-08-01 16:39:00,85.1,71.1,30.00,ESE,111,1.0,2.0,63,0.00,,,0.00,Wunderground v.1.15,2013-08-01 21:39:00,
2013-08-01 16:45:00,85.1,69.7,30.00,North,5,1.0,5.0,60,0.00,,,0.00,Wunderground v.1.15,2013-08-01 21:45:00,
2013-08-01 16:51:00,85.0,69.6,30.00,NE,48,1.0,1.0,60,0.00,,,0.00,Wunderground v.1.15,2013-08-01 21:51:00,
2013-08-01 16:56:00,84.9,69.0,30.00,NNE,32,0.0,3.0,59,0.00,,,0.00,Wunderground v.1.15,2013-08-01 21:56:00,
2013-08-01 17:02:00,85.1,69.2,30.00,NE,43,1.0,3.0,59,0.00,,,0.00,Wunderground v.1.15,2013-08-01 22:02:00,
2013-08-01 17:09:00,85.1,68.7,30.00,SSE,153,1.0,6.0,58,0.00,,,0.00,Wunderground v.1.15,2013-08-01 22:09:00,
2013-08-01 17:15:00,85.0,67.5,30.00,SW,223,1.0,2.0,56,0.00,,,0.00,Wunderground v.1.15,2013-08-01 22:15:00,
2013-08-01 17:21:00,84.8,70.3,30.00,East,90,1.0,1.0,62,0.00,,,0.00,Wunderground v.1.15,2013-08-01 22:21:00,
2013-08-01 17:27:00,85.0,69.1,30.00,SSE,161,1.0,2.0,59,0.00,,,0.00,Wunderground v.1.15,2013-08-01 22:27:00,
2013-08-01 17:33:00,85.0,69.6,29.99,SE,142,0.0,1.0,60,0.00,,,0.00,Wunderground v.1.15,2013-08-01 22:33:00,
2013-08-01 17:39:00,84.9,69.0,29.99,NNE,29,0.0,3.0,59,0.00,,,0.00,Wunderground v.1.15,2013-08-01 22:39:00,
2013-08-01 17:44:00,84.9,68.0,29.99,NNE,29,0.0,0.0,57,0.00,,,0.00,Wunderground v.1.15,2013-08-01 22:44:00,
2013-08-01 17:50:00,85.1,68.2,29.99,NNE,29,0.0,0.0,57,0.00,,,0.00,Wunderground v.1.15,2013-08-01 22:50:00,
2013-08-01 17:56:00,85.0,68.6,29.99,NNE,29,0.0,0.0,58,0.00,,,0.00,Wunderground v.1.15,2013-08-01 22:56:00,
2013-08-01 18:02:00,84.9,67.5,29.99,ESE,113,0.0,2.0,56,0.00,,,0.00,Wunderground v.1.15,2013-08-01 23:02:00,
2013-08-01 18:07:00,84.7,70.2,29.99,SSE,149,0.0,2.0,62,0.00,,,0.00,Wunderground v.1.15,2013-08-01 23:07:00,
2013-08-01 18:13:00,84.4,70.4,29.99,SSE,149,0.0,1.0,63,0.00,,,0.00,Wunderground v.1.15,2013-08-01 23:13:00,
2013-08-01 18:19:00,84.0,69.6,29.99,SSE,149,0.0,1.0,62,0.00,,,0.00,Wunderground v.1.15,2013-08-01 23:19:00,
2013-08-01 18:25:00,83.3,68.9,29.99,SSE,149,0.0,1.0,62,0.00,,,0.00,Wunderground v.1.15,2013-08-01 23:25:00,
2013-08-01 18:31:00,82.7,68.8,29.99,ENE,76,0.0,0.0,63,0.00,,,0.00,Wunderground v.1.15,2013-08-01 23:31:00,
2013-08-01 18:37:00,81.7,68.8,29.99,ENE,76,0.0,0.0,65,0.00,,,0.00,Wunderground v.1.15,2013-08-01 23:37:00,
2013-08-01 18:42:00,80.9,70.6,29.99,ENE,76,0.0,0.0,71,0.00,,,0.00,Wunderground v.1.15,2013-08-01 23:42:00,
2013-08-01 18:48:00,80.2,69.9,29.99,ENE,76,0.0,0.0,71,0.00,,,0.00,Wunderground v.1.15,2013-08-01 23:48:00,
2013-08-01 18:53:00,79.6,69.0,29.99,ENE,76,0.0,0.0,70,0.00,,,0.00,Wunderground v.1.15,2013-08-01 23:53:00,
2013-08-01 18:59:00,79.2,68.6,29.99,ENE,76,0.0,0.0,70,0.00,,,0.00,Wunderground v.1.15,2013-08-01 23:59:00,
2013-08-01 19:05:00,78.9,69.1,29.99,ENE,76,0.0,0.0,72,0.00,,,0.00,Wunderground v.1.15,2013-08-02 00:05:00,
2013-08-01 19:11:00,78.4,68.2,29.99,ENE,76,0.0,0.0,71,0.00,,,0.00,Wunderground v.1.15,2013-08-02 00:11:00,
2013-08-01 19:17:00,78.0,69.4,29.99,ENE,76,0.0,0.0,75,0.00,,,0.00,Wunderground v.1.15,2013-08-02 00:17:00,
2013-08-01 19:22:00,77.6,69.0,29.99,ENE,76,0.0,0.0,75,0.00,,,0.00,Wunderground v.1.15,2013-08-02 00:22:00,
2013-08-01 19:28:00,76.9,68.4,29.99,ENE,76,0.0,0.0,75,0.00,,,0.00,Wunderground v.1.15,2013-08-02 00:28:00,
2013-08-01 19:34:00,76.4,67.9,29.99,ENE,76,0.0,0.0,75,0.00,,,0.00,Wunderground v.1.15,2013-08-02 00:34:00,
2013-08-01 19:40:00,76.1,68.0,29.99,ENE,76,0.0,0.0,76,0.00,,,0.00,Wunderground v.1.15,2013-08-02 00:40:00,
2013-08-01 19:45:00,75.8,67.7,29.99,ENE,76,0.0,0.0,76,0.00,,,0.00,Wunderground v.1.15,2013-08-02 00:45:00,
2013-08-01 19:52:00,75.3,67.6,29.99,ENE,76,0.0,0.0,77,0.00,,,0.00,Wunderground v.1.15,2013-08-02 00:52:00,
2013-08-01 19:58:00,74.9,66.8,29.99,ENE,76,0.0,0.0,76,0.00,,,0.00,Wunderground v.1.15,2013-08-02 00:58:00,
2013-08-01 20:04:00,74.4,67.5,29.99,ENE,76,0.0,0.0,79,0.00,,,0.00,Wunderground v.1.15,2013-08-02 01:04:00,
2013-08-01 20:10:00,73.7,67.5,29.99,ENE,76,0.0,0.0,81,0.00,,,0.00,Wunderground v.1.15,2013-08-02 01:10:00,
2013-08-01 20:15:00,72.9,67.4,29.99,ENE,76,0.0,0.0,83,0.00,,,0.00,Wunderground v.1.15,2013-08-02 01:15:00,
2013-08-01 20:21:00,72.0,66.6,29.99,ENE,76,0.0,0.0,83,0.00,,,0.00,Wunderground v.1.15,2013-08-02 01:21:00,
2013-08-01 20:27:00,71.8,66.7,29.99,ENE,76,0.0,1.0,84,0.00,,,0.00,Wunderground v.1.15,2013-08-02 01:27:00,
2013-08-01 20:33:00,71.6,66.5,30.00,ENE,76,0.0,0.0,84,0.00,,,0.00,Wunderground v.1.15,2013-08-02 01:33:00,
2013-08-01 20:39:00,71.1,66.7,30.00,ENE,76,0.0,0.0,86,0.00,,,0.00,Wunderground v.1.15,2013-08-02 01:39:00,
2013-08-01 20:44:00,70.6,65.9,30.00,ENE,76,0.0,0.0,85,0.00,,,0.00,Wunderground v.1.15,2013-08-02 01:44:00,
2013-08-01 20:50:00,70.3,66.2,29.99,ENE,76,0.0,0.0,87,0.00,,,0.00,Wunderground v.1.15,2013-08-02 01:50:00,
2013-08-01 20:56:00,70.1,65.7,30.00,ENE,76,0.0,0.0,86,0.00,,,0.00,Wunderground v.1.15,2013-08-02 01:56:00,
2013-08-01 21:01:00,70.3,65.9,30.00,ENE,76,0.0,0.0,86,0.00,,,0.00,Wunderground v.1.15,2013-08-02 02:01:00,
2013-08-01 21:07:00,70.1,65.7,30.00,ENE,76,0.0,0.0,86,0.00,,,0.00,Wunderground v.1.15,2013-08-02 02:07:00,
2013-08-01 21:13:00,69.6,65.9,30.00,ENE,76,0.0,0.0,88,0.00,,,0.00,Wunderground v.1.15,2013-08-02 02:13:00,
2013-08-01 21:18:00,69.2,65.8,30.00,ENE,76,0.0,0.0,89,0.00,,,0.00,Wunderground v.1.15,2013-08-02 02:18:00,
2013-08-01 21:24:00,68.8,65.4,30.01,ENE,76,0.0,0.0,89,0.00,,,0.00,Wunderground v.1.15,2013-08-02 02:24:00,
2013-08-01 21:29:00,68.4,65.4,30.01,ENE,76,0.0,0.0,90,0.00,,,0.00,Wunderground v.1.15,2013-08-02 02:29:00,
2013-08-01 21:35:00,68.1,65.4,30.01,ENE,76,0.0,0.0,91,0.00,,,0.00,Wunderground v.1.15,2013-08-02 02:35:00,
2013-08-01 21:40:00,67.9,65.2,30.01,ENE,76,0.0,0.0,91,0.00,,,0.00,Wunderground v.1.15,2013-08-02 02:40:00,
2013-08-01 21:47:00,67.5,64.8,30.01,ENE,76,0.0,0.0,91,0.00,,,0.00,Wunderground v.1.15,2013-08-02 02:47:00,
2013-08-01 21:52:00,67.2,64.8,30.02,ENE,76,0.0,0.0,92,0.00,,,0.00,Wunderground v.1.15,2013-08-02 02:52:00,
2013-08-01 21:58:00,67.0,64.6,30.02,ENE,76,0.0,0.0,92,0.00,,,0.00,Wunderground v.1.15,2013-08-02 02:58:00,
2013-08-01 22:04:00,66.6,64.2,30.02,ENE,76,0.0,0.0,92,0.00,,,0.00,Wunderground v.1.15,2013-08-02 03:04:00,
2013-08-01 22:09:00,66.4,64.3,30.02,ENE,76,0.0,0.0,93,0.00,,,0.00,Wunderground v.1.15,2013-08-02 03:09:00,
2013-08-01 22:15:00,66.2,64.1,30.02,ENE,76,0.0,0.0,93,0.00,,,0.00,Wunderground v.1.15,2013-08-02 03:15:00,
2013-08-01 22:20:00,66.0,63.9,30.02,ENE,76,0.0,0.0,93,0.00,,,0.00,Wunderground v.1.15,2013-08-02 03:20:00,
2013-08-01 22:27:00,65.8,64.0,30.02,ENE,76,0.0,0.0,94,0.00,,,0.00,Wunderground v.1.15,2013-08-02 03:27:00,
2013-08-01 22:33:00,65.7,63.9,30.02,ENE,76,0.0,0.0,94,0.00,,,0.00,Wunderground v.1.15,2013-08-02 03:33:00,
2013-08-01 22:39:00,65.3,63.5,30.02,ENE,76,0.0,0.0,94,0.00,,,0.00,Wunderground v.1.15,2013-08-02 03:39:00,
2013-08-01 22:44:00,65.2,63.4,30.02,ENE,76,0.0,0.0,94,0.00,,,0.00,Wunderground v.1.15,2013-08-02 03:44:00,
2013-08-01 22:50:00,65.0,63.2,30.02,ENE,76,0.0,0.0,94,0.00,,,0.00,Wunderground v.1.15,2013-08-02 03:50:00,
2013-08-01 22:56:00,64.8,63.0,30.02,ENE,76,0.0,0.0,94,0.00,,,0.00,Wunderground v.1.15,2013-08-02 03:56:00,
2013-08-01 23:01:00,64.6,62.8,30.02,ENE,76,0.0,0.0,94,0.00,,,0.00,Wunderground v.1.15,2013-08-02 04:01:00,
2013-08-01 23:02:00,64.6,62.8,30.02,ENE,76,0.0,0.0,94,0.00,,,0.00,Wunderground v.1.15,2013-08-02 04:02:00,
2013-08-01 23:03:00,64.5,62.7,30.02,ENE,76,0.0,0.0,94,0.00,,,0.00,Wunderground v.1.15,2013-08-02 04:03:00,
2013-08-01 23:04:00,64.5,62.7,30.02,ENE,76,0.0,0.0,94,0.00,,,0.00,Wunderground v.1.15,2013-08-02 04:04:00,
2013-08-01 23:05:00,64.5,62.7,30.02,ENE,76,0.0,0.0,94,0.00,,,0.00,Wunderground v.1.15,2013-08-02 04:05:00,
2013-08-01 23:10:00,64.4,62.6,30.02,ENE,76,0.0,0.0,94,0.00,,,0.00,Wunderground v.1.15,2013-08-02 04:10:00,
2013-08-01 23:16:00,64.5,63.0,30.02,ENE,76,0.0,0.0,95,0.00,,,0.00,Wunderground v.1.15,2013-08-02 04:16:00,
2013-08-01 23:18:00,64.6,63.1,30.02,ENE,76,0.0,0.0,95,0.00,,,0.00,Wunderground v.1.15,2013-08-02 04:18:00,
2013-08-01 23:23:00,64.8,63.6,30.03,ENE,76,0.0,0.0,96,0.00,,,0.00,Wunderground v.1.15,2013-08-02 04:23:00,
2013-08-01 23:29:00,64.7,63.2,30.02,ENE,76,0.0,0.0,95,0.00,,,0.00,Wunderground v.1.15,2013-08-02 04:29:00,
2013-08-01 23:35:00,64.4,62.9,30.02,ENE,76,0.0,0.0,95,0.00,,,0.00,Wunderground v.1.15,2013-08-02 04:35:00,
2013-08-01 23:41:00,64.3,62.8,30.03,ENE,76,0.0,0.0,95,0.00,,,0.00,Wunderground v.1.15,2013-08-02 04:41:00,
2013-08-01 23:47:00,64.3,63.1,30.03,ENE,76,0.0,0.0,96,0.00,,,0.00,Wunderground v.1.15,2013-08-02 04:47:00,
2013-08-01 23:52:00,64.0,62.5,30.03,ENE,76,0.0,0.0,95,0.00,,,0.00,Wunderground v.1.15,2013-08-02 04:52:00,
2013-08-01 23:58:00,63.9,62.4,30.03,ENE,76,0.0,0.0,95,0.00,,,0.00,Wunderground v.1.15,2013-08-02 04:58:00,